Latest Coastal Weather Observations for Holmes Reef

IDQ60701

Issued at 7:45 am EST Thursday 23 October 2014 (issued every 10 minutes, with the page automatically refreshed every 10 minutes)

About coastal observations | Map of coastal stations | Coastal observations for QLD | Marine services | Other Formats
Station Details ID: 200732 Name: HOLMES REEF Lat: -16.47 Lon: 147.87 Height: 1.9 m
Data from the previous 72 hours. | See also: Recent months at Holmes Reef
Date/Time
EST
Temp

°C
Wind Pressure Rain
since 9am
mm
Weather Cloud Vis
km
Sea
Height
m
Swell
Dir
 
Speed
knots
Gust
knots
hPa Trend Height
m
Period
s
Dir
23/07:30am 24.5 ESE 17 21 1017.2 - - - - - - - - -
23/07:15am 24.5 SE 17 - 1016.7 - - - - - - - - -
23/07:00am 24.4 ESE 17 19 1016.9 - - - - - - - - -
23/06:30am 24.4 SE 17 22 1016.7 - - - - - - - - -
23/06:15am 24.1 ESE 18 - 1016.2 - - - - - - - - -
23/06:00am 24.2 SE 20 23 1016.4 - - - - - - - - -
23/05:30am 24.2 ESE 17 21 1016.3 - - - - - - - - -
23/05:15am 24.3 ESE 18 - 1015.9 - - - - - - - - -
23/05:00am 24.0 ESE 18 21 1016.0 - - - - - - - - -
23/04:30am 24.1 SE 18 21 1015.7 - - - - - - - - -
23/04:15am 24.1 ESE 18 - 1015.4 - - - - - - - - -
23/04:00am 24.0 ESE 17 21 1015.5 - - - - - - - - -
23/03:30am 24.2 ESE 18 21 1015.4 - - - - - - - - -
23/03:15am 24.1 ESE 18 - 1015.0 - - - - - - - - -
23/03:00am 24.0 ESE 18 21 1015.3 - - - - - - - - -
23/02:30am 24.1 ESE 18 20 1015.5 - - - - - - - - -
23/02:15am 24.0 ESE 17 - 1015.3 - - - - - - - - -
23/02:00am 24.0 ESE 18 21 1015.8 - - - - - - - - -
23/01:30am 24.3 ESE 19 23 1016.2 - - - - - - - - -
23/01:15am 24.2 ESE 19 - 1016.1 - - - - - - - - -
23/01:00am 24.1 ESE 19 22 1016.6 - - - - - - - - -
23/12:30am 24.3 ESE 19 22 1017.1 - - - - - - - - -
23/12:15am 24.4 ESE 21 - 1017.0 - - - - - - - - -
23/12:00am 24.5 ESE 20 25 1017.6 - - - - - - - - -
 
Date/Time
EST
Temp

°C
Wind Pressure Rain
since 9am
mm
Weather Cloud Vis
km
Sea
Height
m
Swell
Dir
 
Speed
knots
Gust
knots
hPa Trend Height
m
Period
s
Dir
22/11:30pm 24.7 ESE 21 24 1017.9 - - - - - - - - -
22/11:15pm 24.6 ESE 22 - 1017.8 - - - - - - - - -
22/11:00pm 24.7 ESE 22 25 1018.3 - - - - - - - - -
22/10:30pm 24.7 ESE 22 26 1018.5 - - - - - - - - -
22/10:15pm 24.7 ESE 21 - 1018.3 - - - - - - - - -
22/10:00pm 24.7 ESE 21 25 1018.6 - - - - - - - - -
22/09:30pm 24.6 ESE 20 24 1018.6 - - - - - - - - -
22/09:15pm 24.9 ESE 20 - 1018.1 - - - - - - - - -
22/09:00pm 24.7 ESE 20 24 1018.3 - - - - - - - - -
22/08:30pm 24.6 ESE 20 22 1017.9 - - - - - - - - -
22/08:15pm 24.4 ESE 19 - 1017.5 - - - - - - - - -
22/08:00pm 24.9 ESE 20 24 1017.5 - - - - - - - - -
22/07:15pm 24.7 SE 21 - 1016.7 - - - - - - - - -
22/07:00pm 24.6 ESE 21 25 1016.9 - - - - - - - - -
22/06:30pm 24.7 ESE 22 25 1016.8 - - - - - - - - -
22/06:15pm 24.6 ESE 22 - 1016.4 - - - - - - - - -
22/06:00pm 24.6 ESE 21 25 1016.6 - - - - - - - - -
22/05:30pm 24.8 ESE 22 25 1016.3 - - - - - - - - -
22/05:15pm 24.6 SE 22 - 1015.7 - - - - - - - - -
22/05:00pm 24.7 ESE 20 23 1015.9 - - - - - - - - -
22/04:30pm 24.7 SE 21 25 1015.6 - - - - - - - - -
22/04:15pm 24.7 SE 21 - 1015.2 - - - - - - - - -
22/04:00pm 24.7 SE 20 24 1015.4 - - - - - - - - -
22/03:30pm 24.8 SE 21 25 1015.5 - - - - - - - - -
22/03:15pm 24.9 SE 21 - 1015.3 - - - - - - - - -
22/03:00pm 24.9 SE 19 22 1015.7 - - - - - - - - -
22/02:30pm 24.8 SE 20 23 1015.8 - - - - - - - - -
22/02:15pm 24.7 SE 20 - 1015.5 - - - - - - - - -
22/02:00pm 24.8 SE 20 23 1015.9 - - - - - - - - -
22/01:30pm 24.7 SE 20 23 1016.2 - - - - - - - - -
22/01:15pm 24.8 SE 19 - 1016.0 - - - - - - - - -
22/01:00pm 24.7 SE 20 23 1016.5 - - - - - - - - -
22/12:30pm 24.8 SE 21 25 1017.0 - - - - - - - - -
22/12:15pm 24.8 SE 20 - 1016.9 - - - - - - - - -
22/12:00pm 25.0 SE 21 24 1017.5 - - - - - - - - -
22/11:30am 24.6 SE 21 23 1017.9 - - - - - - - - -
22/11:15am 24.7 SE 21 - 1017.7 - - - - - - - - -
22/11:00am 24.6 ESE 21 25 1018.0 - - - - - - - - -
22/10:30am 24.8 SE 22 27 1018.1 - - - - - - - - -
22/10:15am 24.7 SE 23 - 1017.7 - - - - - - - - -
22/10:00am 24.9 SE 24 27 1018.0 - - - - - - - - -
22/09:30am 24.8 SE 24 27 1017.9 - - - - - - - - -
22/09:15am 24.9 SE 23 - 1017.7 - - - - - - - - -
22/09:00am 24.6 SE 23 26 1018.1 - - - - - - - - -
22/08:30am 24.8 SE 21 25 1017.9 - - - - - - - - -
22/08:15am 24.3 SE 21 - 1017.6 - - - - - - - - -
22/08:00am 24.7 SE 21 24 1017.8 - - - - - - - - -
22/07:30am 24.6 SE 21 24 1017.6 - - - - - - - - -
22/07:15am 24.5 SE 20 - 1017.2 - - - - - - - - -
22/07:00am 24.7 SE 21 25 1017.3 - - - - - - - - -
22/06:30am 24.3 SE 22 25 1016.9 - - - - - - - - -
22/06:15am 24.6 SE 22 - 1016.5 - - - - - - - - -
22/06:00am 24.3 SE 22 25 1016.6 - - - - - - - - -
22/05:30am 24.1 SE 22 25 1016.2 - - - - - - - - -
22/05:15am 24.3 SE 21 - 1015.7 - - - - - - - - -
22/05:00am 24.1 ESE 22 25 1015.9 - - - - - - - - -
22/04:30am 24.2 SE 22 26 1015.8 - - - - - - - - -
22/04:15am 24.3 ESE 22 - 1015.4 - - - - - - - - -
22/04:00am 24.1 SE 21 26 1015.6 - - - - - - - - -
22/03:30am 24.2 SE 23 27 1015.7 - - - - - - - - -
22/03:15am 24.0 SE 23 - 1015.4 - - - - - - - - -
22/03:00am 24.3 SE 22 26 1015.9 - - - - - - - - -
22/02:30am 24.7 SE 23 27 1016.1 - - - - - - - - -
22/02:15am 24.4 SE 24 - 1015.9 - - - - - - - - -
22/02:00am 24.2 SE 23 27 1016.4 - - - - - - - - -
22/01:30am 24.2 SE 24 28 1016.7 - - - - - - - - -
22/01:15am 24.5 SE 23 - 1016.7 - - - - - - - - -
22/01:00am 24.5 SE 23 27 1017.3 - - - - - - - - -
22/12:30am 24.9 SE 23 27 1017.9 - - - - - - - - -
22/12:15am 24.8 SE 23 - 1017.8 - - - - - - - - -
22/12:00am 24.5 SE 23 26 1018.4 - - - - - - - - -
 
Date/Time
EST
Temp

°C
Wind Pressure Rain
since 9am
mm
Weather Cloud Vis
km
Sea
Height
m
Swell
Dir
 
Speed
knots
Gust
knots
hPa Trend Height
m
Period
s
Dir
21/11:30pm 24.6 SE 21 25 1018.8 - - - - - - - - -
21/11:15pm 24.4 SE 21 - 1018.7 - - - - - - - - -
21/11:00pm 24.9 SE 22 25 1019.1 - - - - - - - - -
21/10:30pm 24.4 SE 22 25 1019.3 - - - - - - - - -
21/10:15pm 24.6 SE 22 - 1019.0 - - - - - - - - -
21/10:00pm 24.6 SE 22 26 1019.3 - - - - - - - - -
21/09:30pm 24.5 SE 24 27 1019.1 - - - - - - - - -
21/09:15pm 24.4 SE 24 - 1018.8 - - - - - - - - -
21/09:00pm 24.3 ESE 25 29 1019.0 - - - - - - - - -
21/08:30pm 24.4 SE 24 28 1018.6 - - - - - - - - -
21/08:15pm 24.6 SE 24 - 1018.2 - - - - - - - - -
21/08:00pm 24.9 SE 23 27 1018.4 - - - - - - - - -
21/07:30pm 24.5 SE 24 28 1018.2 - - - - - - - - -
21/07:15pm 24.5 ESE 23 - 1017.7 - - - - - - - - -
21/07:00pm 24.8 SE 24 28 1017.8 - - - - - - - - -
21/06:30pm 24.7 SE 24 27 1017.4 - - - - - - - - -
21/06:15pm 24.7 SE 25 - 1017.0 - - - - - - - - -
21/06:00pm 24.6 SE 25 30 1017.0 - - - - - - - - -
21/05:30pm 24.7 SE 25 29 1016.8 - - - - - - - - -
21/05:15pm 24.8 SE 23 - 1016.4 - - - - - - - - -
21/05:00pm 24.7 SE 25 29 1016.5 - - - - - - - - -
21/04:30pm 24.9 SE 25 29 1016.3 - - - - - - - - -
21/04:15pm 24.9 SE 25 - 1015.8 - - - - - - - - -
21/04:00pm 24.7 SE 24 28 1016.1 - - - - - - - - -
21/03:30pm 24.8 SE 24 27 1016.3 - - - - - - - - -
21/03:15pm 24.8 SE 24 - 1015.9 - - - - - - - - -
21/03:00pm 24.7 SE 24 28 1016.2 - - - - - - - - -
21/02:30pm 24.0 SE 24 29 1016.2 - - - - - - - - -
21/02:15pm 24.8 SE 24 - 1016.0 - - - - - - - - -
21/02:00pm 24.9 SE 24 29 1016.5 - - - - - - - - -
21/01:30pm 24.8 SE 24 27 1016.7 - - - - - - - - -
21/01:15pm 24.8 SE 24 - 1016.5 - - - - - - - - -
21/01:00pm 24.8 SE 23 28 1016.9 - - - - - - - - -
21/12:30pm 25.0 SE 23 27 1017.4 - - - - - - - - -
21/12:15pm 24.9 SE 22 - 1017.3 - - - - - - - - -
21/12:00pm 25.1 SE 22 25 1017.8 - - - - - - - - -
21/11:30am 25.1 ESE 23 26 1018.1 - - - - - - - - -
21/11:15am 24.8 ESE 22 - 1017.9 - - - - - - - - -
21/11:00am 24.8 ESE 22 26 1018.4 - - - - - - - - -
21/10:30am 24.8 ESE 23 27 1018.5 - - - - - - - - -
21/10:15am 24.6 ESE 23 - 1018.2 - - - - - - - - -
21/10:00am 24.5 ESE 21 24 1018.5 - - - - - - - - -
21/09:30am 24.5 ESE 23 27 1018.5 - - - - - - - - -
21/09:15am 24.7 ESE 22 - 1018.3 - - - - - - - - -
21/09:00am 24.7 ESE 23 25 1018.6 - - - - - - - - -
21/08:30am 24.6 ESE 22 25 1018.3 - - - - - - - - -
21/08:15am 24.7 ESE 23 - 1017.8 - - - - - - - - -
21/08:00am 24.7 SE 22 26 1017.9 - - - - - - - - -
21/07:30am 24.5 SE 22 25 1017.7 - - - - - - - - -
21/07:15am 24.5 SE 23 - 1017.2 - - - - - - - - -
21/07:00am 24.3 SE 22 25 1017.4 - - - - - - - - -
21/06:30am 24.1 SE 22 26 1017.1 - - - - - - - - -
21/06:15am 24.3 SE 21 - 1016.6 - - - - - - - - -
21/06:00am 24.4 SE 21 25 1016.7 - - - - - - - - -
21/05:30am 24.3 SE 21 25 1016.5 - - - - - - - - -
21/05:15am 24.4 SE 21 - 1016.1 - - - - - - - - -
21/05:00am 24.2 ESE 21 23 1016.3 - - - - - - - - -
21/04:30am 24.0 ESE 21 25 1016.1 - - - - - - - - -
21/04:15am 24.4 SE 21 - 1015.7 - - - - - - - - -
21/04:00am 24.1 SE 21 24 1016.1 - - - - - - - - -
21/03:30am 24.1 SE 21 24 1015.9 - - - - - - - - -
21/03:15am 24.5 SE 21 - 1015.6 - - - - - - - - -
21/03:00am 24.2 SE 20 23 1015.9 - - - - - - - - -
21/02:30am 24.3 SE 21 24 1016.0 - - - - - - - - -
21/02:15am 24.2 SE 20 - 1016.0 - - - - - - - - -
21/02:00am 24.3 SE 20 23 1016.5 - - - - - - - - -
21/01:30am 24.2 SE 20 23 1016.5 - - - - - - - - -
21/01:15am 24.3 SE 21 - 1016.4 - - - - - - - - -
21/01:00am 24.3 SE 20 24 1016.9 - - - - - - - - -
21/12:30am 24.4 SE 21 24 1017.3 - - - - - - - - -
21/12:15am 24.3 SE 20 - 1017.3 - - - - - - - - -
21/12:00am 24.4 SE 21 23 1017.7 - - - - - - - - -
 
Date/Time
EST
Temp

°C
Wind Pressure Rain
since 9am
mm
Weather Cloud Vis
km
Sea
Height
m
Swell
Dir
 
Speed
knots
Gust
knots
hPa Trend Height
m
Period
s
Dir
20/11:30pm 24.5 SE 21 24 1018.0 - - - - - - - - -
20/11:15pm 24.6 SE 20 - 1017.8 - - - - - - - - -
20/11:00pm 24.5 ESE 22 24 1018.2 - - - - - - - - -
20/10:30pm 24.9 ESE 21 24 1018.4 - - - - - - - - -
20/10:15pm 24.7 SE 21 - 1018.1 - - - - - - - - -
20/10:00pm 24.5 ESE 22 25 1018.4 - - - - - - - - -
20/09:30pm 24.8 ESE 21 25 1018.2 - - - - - - - - -
20/09:15pm 25.0 ESE 21 - 1017.9 - - - - - - - - -
20/09:00pm 24.8 ESE 21 24 1018.1 - - - - - - - - -
20/08:30pm 24.8 SE 21 24 1017.8 - - - - - - - - -
20/08:15pm 24.9 ESE 21 - 1017.3 - - - - - - - - -
20/08:00pm 24.7 ESE 22 25 1017.5 - - - - - - - - -
20/07:30pm 24.6 ESE 22 25 1017.3 - - - - - - - - -
20/07:15pm 24.7 ESE 21 - 1016.8 - - - - - - - - -
20/07:00pm 24.8 ESE 21 25 1017.0 - - - - - - - - -
20/06:30pm 24.9 ESE 23 26 1016.6 - - - - - - - - -
20/06:15pm 24.8 ESE 23 - 1016.2 - - - - - - - - -
20/06:00pm 24.8 ESE 21 25 1016.4 - - - - - - - - -
20/05:30pm 24.9 SE 23 27 1016.1 - - - - - - - - -
20/05:15pm 24.9 ESE 22 - 1015.7 - - - - - - - - -
20/05:00pm 25.0 ESE 22 25 1015.8 - - - - - - - - -
20/04:30pm 24.9 ESE 22 26 1015.6 - - - - - - - - -
20/04:15pm 24.9 SE 22 - 1015.2 - - - - - - - - -
20/04:00pm 24.8 ESE 23 26 1015.4 - - - - - - - - -
20/03:30pm 24.9 SE 23 27 1015.5 - - - - - - - - -
20/03:15pm 24.8 ESE 23 - 1015.3 - - - - - - - - -
20/03:00pm 24.9 ESE 23 28 1015.6 - - - - - - - - -
20/02:30pm 24.9 ESE 24 27 1015.8 - - - - - - - - -
20/02:15pm 24.9 SE 24 - 1015.7 - - - - - - - - -
20/02:00pm 24.9 ESE 24 27 1016.1 - - - - - - - - -
20/01:30pm 24.9 ESE 25 28 1016.3 - - - - - - - - -
20/01:15pm 25.1 SE 23 - 1016.2 - - - - - - - - -
20/01:00pm 24.9 SE 25 29 1016.6 - - - - - - - - -
20/12:30pm 24.7 SE 24 29 1017.0 - - - - - - - - -
20/12:15pm 24.8 SE 24 - 1017.1 - - - - - - - - -
20/12:00pm 24.7 SE 24 28 1017.5 - - - - - - - - -
20/11:30am 25.0 ESE 25 30 1018.0 - - - - - - - - -
20/11:15am 25.0 SE 25 - 1017.8 - - - - - - - - -
20/11:00am 24.9 ESE 24 30 1018.2 - - - - - - - - -
20/10:30am 24.8 ESE 26 30 1018.4 - - - - - - - - -
20/10:15am 24.9 ESE 25 - 1018.2 - - - - - - - - -
20/10:00am 24.9 ESE 25 28 1018.5 - - - - - - - - -
20/09:30am 24.8 SE 26 30 1018.6 - - - - - - - - -
20/09:15am 24.9 ESE 24 - 1018.5 - - - - - - - - -
20/09:00am 24.8 ESE 26 30 1018.8 - - - - - - - - -
20/08:30am 24.9 ESE 25 30 1018.5 - - - - - - - - -
20/08:15am 24.9 ESE 26 - 1018.2 - - - - - - - - -
20/08:00am 24.9 ESE 25 28 1018.2 - - - - - - - - -

Other Formats:

Comma delimited format used in spreadsheet applications
http://www.bom.gov.au/fwo/IDQ60701/IDQ60701.94289.axf

JavaScript Object Notation format (JSON) in row-major order
http://www.bom.gov.au/fwo/IDQ60701/IDQ60701.94289.json